Ana Sayfa
METAR-TAF:

METAR-TAF

Havaalanları :

Cengiz Topel Havalimanı

İzmit, Türkiye

Enlem: 40-44N, Boylam: 030-05E, yükseklik: 50 m

Güncel hava durumu gözlemi

Rapor saat 12:50 UTC de 34 dakika önce yapıldı.
Rüzgar değişken yönden 4 kt
Sıcaklık 28°C
Nem 48%
Basınç 1016 hPa
Görüş mesafesi 10 km veya daha fazla
4500 ft yükseklikte parçalı bulutlu

METAR: LTBQ 261250Z VRB04KT 9999 SCT045 28/16 Q1016 NOSIG

Saat: 16:24 (13:24 UTC)

Tahmin

Rapor saat 10:40 UTC de 2 saat ve 44 dakika önce yapıldı.
Ayın 26'si saat 12 UTC'den ayın 26'si saat 21 UTC'ye kadar geçerli Tahmin
Rüzgar değişken yönden 2 kt
Görüş mesafesi 10 km veya daha fazla
5000 ft yükseklikte parçalı bulutlu
Dönüşüyor
ayın 26'si saat 16 UTC'den ayın 26'si saat 18 UTC'ye kadar
Görüş mesafesi 10 km veya daha fazla
1500 m altında bulut yok ve kümülonimbus yok

TAF: LTBQ 261040Z 2612/2621 VRB02KT 9999 SCT050 BECMG 2616/2618 CAVOK

4.000'den fazla havaalanı için hava durumu gözlemleri ve tahminleri (METAR ve TAF raporları).

Kullanılabilir istasyonlar harita üzerinde sarı ve kırmızı noktalarla gösterilir.

İstasyonun adını görmek için fareyi noktanın üzerinde gezdirin.

Sonrasında hava gözlem ve tahminlerini görmek için tıklayın.

Haritayı değiştirmek için: yaklaştırmak için siyah artı işaretli yeşil düğmeye ve uzaklaştırmak için de eksi işaretli düğmeye hızla tıklayın; bitişik haritalar için yeşil okları kullanın.


METAR-TAF: